sensor_id;sensor_type;location;lat;lon;timestamp;pressure;altitude;pressure_sealevel;temperature;humidity
72465;BME280;60471;52.150;4.508;2023-05-20T00:00:44;102344.34;;;14.10;64.62
72465;BME280;60471;52.150;4.508;2023-05-20T00:03:16;102341.19;;;14.24;64.21
72465;BME280;60471;52.150;4.508;2023-05-20T00:05:43;102337.50;;;14.04;64.91
72465;BME280;60471;52.150;4.508;2023-05-20T00:08:09;102335.44;;;14.12;64.69
72465;BME280;60471;52.150;4.508;2023-05-20T00:10:36;102337.25;;;14.10;64.40
72465;BME280;60471;52.150;4.508;2023-05-20T00:13:02;102337.09;;;14.15;64.80
72465;BME280;60471;52.150;4.508;2023-05-20T00:15:28;102339.81;;;14.13;64.60
72465;BME280;60471;52.150;4.508;2023-05-20T00:17:56;102336.28;;;14.13;64.57
72465;BME280;60471;52.150;4.508;2023-05-20T00:20:23;102342.75;;;14.06;64.94
72465;BME280;60471;52.150;4.508;2023-05-20T00:22:49;102338.25;;;14.08;64.90
72465;BME280;60471;52.150;4.508;2023-05-20T00:25:16;102331.00;;;13.89;65.33
72465;BME280;60471;52.150;4.508;2023-05-20T00:27:42;102342.22;;;13.96;65.56
72465;BME280;60471;52.150;4.508;2023-05-20T00:30:08;102330.69;;;13.97;65.41
72465;BME280;60471;52.150;4.508;2023-05-20T00:32:35;102337.34;;;13.85;65.66
72465;BME280;60471;52.150;4.508;2023-05-20T00:35:02;102333.47;;;13.94;65.51
72465;BME280;60471;52.150;4.508;2023-05-20T00:37:28;102336.88;;;13.98;65.86
72465;BME280;60471;52.150;4.508;2023-05-20T00:39:55;102330.03;;;13.92;65.75
72465;BME280;60471;52.150;4.508;2023-05-20T00:42:25;102327.59;;;13.86;65.99
72465;BME280;60471;52.150;4.508;2023-05-20T00:44:54;102331.16;;;13.85;66.04
72465;BME280;60471;52.150;4.508;2023-05-20T00:47:32;102336.31;;;13.89;66.08
72465;BME280;60471;52.150;4.508;2023-05-20T00:49:59;102333.94;;;13.82;66.59
72465;BME280;60471;52.150;4.508;2023-05-20T00:52:27;102332.28;;;13.79;66.48
72465;BME280;60471;52.150;4.508;2023-05-20T00:54:57;102327.81;;;13.80;66.27
72465;BME280;60471;52.150;4.508;2023-05-20T00:57:24;102328.97;;;13.73;66.71
72465;BME280;60471;52.150;4.508;2023-05-20T00:59:51;102322.75;;;13.74;66.79
72465;BME280;60471;52.150;4.508;2023-05-20T01:02:18;102309.25;;;13.80;67.04
72465;BME280;60471;52.150;4.508;2023-05-20T01:04:44;102310.84;;;13.60;67.70
72465;BME280;60471;52.150;4.508;2023-05-20T01:07:14;102314.25;;;13.64;67.62
72465;BME280;60471;52.150;4.508;2023-05-20T01:09:42;102309.06;;;13.61;68.03
72465;BME280;60471;52.150;4.508;2023-05-20T01:12:14;102304.56;;;13.63;67.91
72465;BME280;60471;52.150;4.508;2023-05-20T01:14:47;102308.72;;;13.70;67.82
72465;BME280;60471;52.150;4.508;2023-05-20T01:17:18;102310.53;;;13.70;67.51
72465;BME280;60471;52.150;4.508;2023-05-20T01:19:46;102312.47;;;13.64;67.94
72465;BME280;60471;52.150;4.508;2023-05-20T01:22:14;102313.84;;;13.51;68.57
72465;BME280;60471;52.150;4.508;2023-05-20T01:24:41;102319.22;;;13.50;68.88
72465;BME280;60471;52.150;4.508;2023-05-20T01:27:10;102318.47;;;13.46;68.98
72465;BME280;60471;52.150;4.508;2023-05-20T01:29:38;102313.31;;;13.42;69.34
72465;BME280;60471;52.150;4.508;2023-05-20T01:32:15;102307.09;;;13.43;69.09
72465;BME280;60471;52.150;4.508;2023-05-20T01:34:47;102307.31;;;13.37;69.63
72465;BME280;60471;52.150;4.508;2023-05-20T01:37:16;102302.81;;;13.39;69.57
72465;BME280;60471;52.150;4.508;2023-05-20T01:39:45;102295.34;;;13.50;69.24
72465;BME280;60471;52.150;4.508;2023-05-20T01:42:14;102289.31;;;13.45;69.42
72465;BME280;60471;52.150;4.508;2023-05-20T01:44:42;102288.91;;;13.32;69.78
72465;BME280;60471;52.150;4.508;2023-05-20T01:47:08;102279.94;;;13.36;69.42
72465;BME280;60471;52.150;4.508;2023-05-20T01:49:35;102283.84;;;13.26;70.11
72465;BME280;60471;52.150;4.508;2023-05-20T01:52:01;102282.88;;;13.28;70.21
72465;BME280;60471;52.150;4.508;2023-05-20T01:54:28;102284.31;;;13.37;69.98
72465;BME280;60471;52.150;4.508;2023-05-20T01:56:54;102279.75;;;13.41;69.86
72465;BME280;60471;52.150;4.508;2023-05-20T01:59:21;102288.47;;;13.44;70.14
72465;BME280;60471;52.150;4.508;2023-05-20T02:01:47;102275.84;;;13.51;70.07
72465;BME280;60471;52.150;4.508;2023-05-20T02:04:13;102284.63;;;13.53;69.84
72465;BME280;60471;52.150;4.508;2023-05-20T02:06:39;102278.78;;;13.43;70.13
72465;BME280;60471;52.150;4.508;2023-05-20T02:09:06;102274.72;;;13.33;70.57
72465;BME280;60471;52.150;4.508;2023-05-20T02:11:32;102275.59;;;13.33;70.49
72465;BME280;60471;52.150;4.508;2023-05-20T02:13:58;102279.16;;;13.32;70.60
72465;BME280;60471;52.150;4.508;2023-05-20T02:16:24;102274.09;;;13.26;70.89
72465;BME280;60471;52.150;4.508;2023-05-20T02:18:50;102277.56;;;13.28;70.98
72465;BME280;60471;52.150;4.508;2023-05-20T02:21:17;102283.06;;;13.22;71.18
72465;BME280;60471;52.150;4.508;2023-05-20T02:23:44;102284.66;;;13.28;71.00
72465;BME280;60471;52.150;4.508;2023-05-20T02:26:10;102284.53;;;13.31;70.80
72465;BME280;60471;52.150;4.508;2023-05-20T02:28:36;102284.66;;;13.28;71.01
72465;BME280;60471;52.150;4.508;2023-05-20T02:31:09;102280.53;;;13.19;71.28
72465;BME280;60471;52.150;4.508;2023-05-20T02:33:35;102280.69;;;13.15;71.60
72465;BME280;60471;52.150;4.508;2023-05-20T02:36:02;102269.44;;;13.08;71.96
72465;BME280;60471;52.150;4.508;2023-05-20T02:38:28;102284.25;;;13.14;71.80
72465;BME280;60471;52.150;4.508;2023-05-20T02:40:56;102272.38;;;13.25;71.30
72465;BME280;60471;52.150;4.508;2023-05-20T02:43:24;102277.63;;;13.27;71.25
72465;BME280;60471;52.150;4.508;2023-05-20T02:45:51;102277.84;;;13.21;71.48
72465;BME280;60471;52.150;4.508;2023-05-20T02:48:17;102277.03;;;13.19;71.62
72465;BME280;60471;52.150;4.508;2023-05-20T02:50:46;102277.97;;;13.16;71.64
72465;BME280;60471;52.150;4.508;2023-05-20T02:53:12;102272.59;;;13.19;71.76
72465;BME280;60471;52.150;4.508;2023-05-20T02:55:39;102269.94;;;13.19;71.74
72465;BME280;60471;52.150;4.508;2023-05-20T02:58:05;102271.41;;;13.28;71.34
72465;BME280;60471;52.150;4.508;2023-05-20T03:00:31;102275.59;;;13.33;71.24
72465;BME280;60471;52.150;4.508;2023-05-20T03:03:06;102275.50;;;13.37;71.35
72465;BME280;60471;52.150;4.508;2023-05-20T03:05:32;102271.94;;;13.38;71.36
72465;BME280;60471;52.150;4.508;2023-05-20T03:08:06;102272.47;;;13.47;70.44
72465;BME280;60471;52.150;4.508;2023-05-20T03:10:38;102269.22;;;13.39;71.12
72465;BME280;60471;52.150;4.508;2023-05-20T03:13:05;102266.84;;;13.31;71.28
72465;BME280;60471;52.150;4.508;2023-05-20T03:15:34;102268.69;;;13.29;71.46
72465;BME280;60471;52.150;4.508;2023-05-20T03:18:00;102263.19;;;13.34;71.15
72465;BME280;60471;52.150;4.508;2023-05-20T03:20:27;102272.09;;;13.33;71.31
72465;BME280;60471;52.150;4.508;2023-05-20T03:22:57;102267.75;;;13.30;71.40
72465;BME280;60471;52.150;4.508;2023-05-20T03:25:24;102267.66;;;13.33;71.46
72465;BME280;60471;52.150;4.508;2023-05-20T03:27:51;102279.22;;;13.31;71.60
72465;BME280;60471;52.150;4.508;2023-05-20T03:30:17;102272.41;;;13.24;71.61
72465;BME280;60471;52.150;4.508;2023-05-20T03:32:43;102268.75;;;13.28;71.89
72465;BME280;60471;52.150;4.508;2023-05-20T03:35:10;102268.75;;;13.28;71.52
72465;BME280;60471;52.150;4.508;2023-05-20T03:37:36;102266.25;;;13.23;71.89
72465;BME280;60471;52.150;4.508;2023-05-20T03:40:02;102265.38;;;13.23;72.03
72465;BME280;60471;52.150;4.508;2023-05-20T03:42:32;102266.03;;;13.04;72.28
72465;BME280;60471;52.150;4.508;2023-05-20T03:44:59;102264.00;;;13.11;72.68
72465;BME280;60471;52.150;4.508;2023-05-20T03:47:26;102271.16;;;13.09;72.50
72465;BME280;60471;52.150;4.508;2023-05-20T03:49:52;102266.78;;;13.08;72.39
72465;BME280;60471;52.150;4.508;2023-05-20T03:52:19;102263.63;;;12.97;73.04
72465;BME280;60471;52.150;4.508;2023-05-20T03:54:45;102269.00;;;12.95;73.15
72465;BME280;60471;52.150;4.508;2023-05-20T03:57:12;102259.53;;;12.88;73.57
72465;BME280;60471;52.150;4.508;2023-05-20T03:59:38;102258.03;;;12.80;73.72
72465;BME280;60471;52.150;4.508;2023-05-20T04:02:04;102264.69;;;12.91;73.35
72465;BME280;60471;52.150;4.508;2023-05-20T04:04:31;102262.88;;;12.93;73.29
72465;BME280;60471;52.150;4.508;2023-05-20T04:06:58;102264.75;;;12.90;73.55
72465;BME280;60471;52.150;4.508;2023-05-20T04:09:28;102262.94;;;12.92;73.52
72465;BME280;60471;52.150;4.508;2023-05-20T04:11:54;102262.88;;;12.93;73.11
72465;BME280;60471;52.150;4.508;2023-05-20T04:14:20;102255.69;;;12.97;73.24
72465;BME280;60471;52.150;4.508;2023-05-20T04:16:46;102256.56;;;12.97;72.97
72465;BME280;60471;52.150;4.508;2023-05-20T04:19:15;102259.03;;;13.02;72.60
72465;BME280;60471;52.150;4.508;2023-05-20T04:21:44;102265.09;;;13.05;72.70
72465;BME280;60471;52.150;4.508;2023-05-20T04:24:10;102257.75;;;13.14;72.38
72465;BME280;60471;52.150;4.508;2023-05-20T04:26:37;102260.06;;;13.23;71.95
72465;BME280;60471;52.150;4.508;2023-05-20T04:29:03;102260.56;;;13.34;71.56
72465;BME280;60471;52.150;4.508;2023-05-20T04:31:30;102251.81;;;13.32;71.73
72465;BME280;60471;52.150;4.508;2023-05-20T04:33:56;102262.19;;;13.38;71.42
72465;BME280;60471;52.150;4.508;2023-05-20T04:36:22;102267.19;;;13.46;71.15
72465;BME280;60471;52.150;4.508;2023-05-20T04:38:55;102262.06;;;13.41;71.17
72465;BME280;60471;52.150;4.508;2023-05-20T04:41:22;102272.16;;;13.55;71.08
72465;BME280;60471;52.150;4.508;2023-05-20T04:43:48;102263.34;;;13.54;70.85
72465;BME280;60471;52.150;4.508;2023-05-20T04:46:15;102265.72;;;13.62;70.62
72465;BME280;60471;52.150;4.508;2023-05-20T04:48:42;102264.63;;;13.68;70.42
72465;BME280;60471;52.150;4.508;2023-05-20T04:51:09;102269.09;;;13.66;70.72
72465;BME280;60471;52.150;4.508;2023-05-20T04:53:35;102262.78;;;13.70;70.70
72465;BME280;60471;52.150;4.508;2023-05-20T04:56:02;102261.16;;;13.66;70.67
72465;BME280;60471;52.150;4.508;2023-05-20T04:58:28;102262.00;;;13.66;71.09
72465;BME280;60471;52.150;4.508;2023-05-20T05:00:56;102260.34;;;13.63;70.99
72465;BME280;60471;52.150;4.508;2023-05-20T05:03:22;102261.41;;;13.59;71.04
72465;BME280;60471;52.150;4.508;2023-05-20T05:05:48;102260.59;;;13.57;71.17
72465;BME280;60471;52.150;4.508;2023-05-20T05:08:15;102263.25;;;13.57;71.48
72465;BME280;60471;52.150;4.508;2023-05-20T05:10:43;102259.03;;;13.52;71.46
72465;BME280;60471;52.150;4.508;2023-05-20T05:13:10;102256.50;;;13.49;71.78
72465;BME280;60471;52.150;4.508;2023-05-20T05:15:36;102255.31;;;13.56;72.19
72465;BME280;60471;52.150;4.508;2023-05-20T05:18:02;102255.16;;;13.60;71.31
72465;BME280;60471;52.150;4.508;2023-05-20T05:20:29;102257.34;;;13.73;71.12
72465;BME280;60471;52.150;4.508;2023-05-20T05:22:55;102248.75;;;13.66;71.10
72465;BME280;60471;52.150;4.508;2023-05-20T05:25:21;102243.50;;;13.64;71.44
72465;BME280;60471;52.150;4.508;2023-05-20T05:27:47;102256.41;;;13.74;71.30
72465;BME280;60471;52.150;4.508;2023-05-20T05:30:16;102253.94;;;13.92;70.66
72465;BME280;60471;52.150;4.508;2023-05-20T05:32:43;102244.59;;;14.04;70.00
72465;BME280;60471;52.150;4.508;2023-05-20T05:35:09;102252.88;;;13.97;70.08
72465;BME280;60471;52.150;4.508;2023-05-20T05:37:36;102243.97;;;14.19;69.95
72465;BME280;60471;52.150;4.508;2023-05-20T05:40:02;102253.63;;;14.22;69.23
72465;BME280;60471;52.150;4.508;2023-05-20T05:42:29;102244.69;;;14.25;69.36
72465;BME280;60471;52.150;4.508;2023-05-20T05:44:55;102251.72;;;14.26;69.52
72465;BME280;60471;52.150;4.508;2023-05-20T05:47:21;102250.84;;;14.25;69.43
72465;BME280;60471;52.150;4.508;2023-05-20T05:49:48;102249.00;;;14.27;69.39
72465;BME280;60471;52.150;4.508;2023-05-20T05:52:14;102242.75;;;14.28;69.55
72465;BME280;60471;52.150;4.508;2023-05-20T05:54:40;102248.84;;;14.30;69.43
72465;BME280;60471;52.150;4.508;2023-05-20T05:57:06;102243.53;;;14.30;69.28
72465;BME280;60471;52.150;4.508;2023-05-20T05:59:34;102250.06;;;14.23;69.65
72465;BME280;60471;52.150;4.508;2023-05-20T06:02:00;102248.41;;;14.41;69.50
72465;BME280;60471;52.150;4.508;2023-05-20T06:04:27;102246.97;;;14.56;68.43
72465;BME280;60471;52.150;4.508;2023-05-20T06:06:53;102250.66;;;14.52;69.34
72465;BME280;60471;52.150;4.508;2023-05-20T06:09:19;102252.69;;;14.67;68.56
72465;BME280;60471;52.150;4.508;2023-05-20T06:11:45;102253.59;;;14.45;68.99
72465;BME280;60471;52.150;4.508;2023-05-20T06:14:11;102253.06;;;14.36;69.46
72465;BME280;60471;52.150;4.508;2023-05-20T06:16:37;102251.28;;;14.36;69.53
72465;BME280;60471;52.150;4.508;2023-05-20T06:19:04;102245.66;;;14.66;68.95
72465;BME280;60471;52.150;4.508;2023-05-20T06:21:31;102250.94;;;14.86;67.98
72465;BME280;60471;52.150;4.508;2023-05-20T06:23:57;102241.72;;;14.95;67.88
72465;BME280;60471;52.150;4.508;2023-05-20T06:26:23;102234.19;;;15.25;67.08
72465;BME280;60471;52.150;4.508;2023-05-20T06:28:50;102231.69;;;15.59;66.17
72465;BME280;60471;52.150;4.508;2023-05-20T06:31:16;102238.16;;;15.74;64.89
72465;BME280;60471;52.150;4.508;2023-05-20T06:33:42;102236.00;;;15.43;65.88
72465;BME280;60471;52.150;4.508;2023-05-20T06:36:08;102234.13;;;15.45;65.80
72465;BME280;60471;52.150;4.508;2023-05-20T06:38:35;102239.44;;;15.65;65.68
72465;BME280;60471;52.150;4.508;2023-05-20T06:41:01;102235.28;;;15.58;65.56
72465;BME280;60471;52.150;4.508;2023-05-20T06:43:27;102236.81;;;15.45;65.96
72465;BME280;60471;52.150;4.508;2023-05-20T06:45:53;102232.94;;;15.52;66.08
72465;BME280;60471;52.150;4.508;2023-05-20T06:48:20;102229.34;;;15.53;66.28
72465;BME280;60471;52.150;4.508;2023-05-20T06:50:46;102226.78;;;15.71;65.90
72465;BME280;60471;52.150;4.508;2023-05-20T06:53:12;102224.72;;;15.94;65.10
72465;BME280;60471;52.150;4.508;2023-05-20T06:55:38;102230.47;;;16.04;65.22
72465;BME280;60471;52.150;4.508;2023-05-20T06:58:04;102242.44;;;16.32;64.17
72465;BME280;60471;52.150;4.508;2023-05-20T07:00:31;102225.47;;;16.15;64.19
72465;BME280;60471;52.150;4.508;2023-05-20T07:02:57;102231.13;;;16.09;64.59
72465;BME280;60471;52.150;4.508;2023-05-20T07:05:23;102220.72;;;16.22;63.70
72465;BME280;60471;52.150;4.508;2023-05-20T07:07:49;102220.41;;;16.11;63.93
72465;BME280;60471;52.150;4.508;2023-05-20T07:10:16;102216.00;;;16.10;63.67
72465;BME280;60471;52.150;4.508;2023-05-20T07:12:42;102221.84;;;16.18;62.97
72465;BME280;60471;52.150;4.508;2023-05-20T07:15:08;102216.66;;;16.49;62.13
72465;BME280;60471;52.150;4.508;2023-05-20T07:17:35;102215.69;;;16.52;62.01
72465;BME280;60471;52.150;4.508;2023-05-20T07:20:01;102214.16;;;16.46;61.90
72465;BME280;60471;52.150;4.508;2023-05-20T07:22:29;102214.53;;;16.39;62.21
72465;BME280;60471;52.150;4.508;2023-05-20T07:24:55;102210.25;;;16.53;61.70
72465;BME280;60471;52.150;4.508;2023-05-20T07:27:21;102210.66;;;16.46;61.22
72465;BME280;60471;52.150;4.508;2023-05-20T07:29:47;102203.28;;;16.51;60.71
72465;BME280;60471;52.150;4.508;2023-05-20T07:32:14;102205.47;;;16.60;60.27
72465;BME280;60471;52.150;4.508;2023-05-20T07:34:40;102206.84;;;16.69;60.11
72465;BME280;60471;52.150;4.508;2023-05-20T07:37:07;102196.91;;;16.72;59.74
72465;BME280;60471;52.150;4.508;2023-05-20T07:39:34;102200.47;;;16.89;59.49
72465;BME280;60471;52.150;4.508;2023-05-20T07:42:01;102203.22;;;17.20;58.03
72465;BME280;60471;52.150;4.508;2023-05-20T07:44:27;102206.59;;;17.24;58.48
72465;BME280;60471;52.150;4.508;2023-05-20T07:46:54;102198.78;;;17.36;58.23
72465;BME280;60471;52.150;4.508;2023-05-20T07:49:20;102193.38;;;17.38;58.38
72465;BME280;60471;52.150;4.508;2023-05-20T07:51:46;102191.84;;;17.50;57.46
72465;BME280;60471;52.150;4.508;2023-05-20T07:54:13;102194.22;;;17.72;57.33
72465;BME280;60471;52.150;4.508;2023-05-20T07:56:40;102196.28;;;17.82;56.61
72465;BME280;60471;52.150;4.508;2023-05-20T07:59:06;102196.25;;;17.98;56.10
72465;BME280;60471;52.150;4.508;2023-05-20T08:01:32;102196.69;;;17.75;56.25
72465;BME280;60471;52.150;4.508;2023-05-20T08:03:59;102192.59;;;17.52;56.27
72465;BME280;60471;52.150;4.508;2023-05-20T08:06:25;102191.34;;;17.75;56.07
72465;BME280;60471;52.150;4.508;2023-05-20T08:08:52;102185.97;;;18.06;55.44
72465;BME280;60471;52.150;4.508;2023-05-20T08:11:21;102178.78;;;17.92;56.11
72465;BME280;60471;52.150;4.508;2023-05-20T08:13:47;102192.09;;;18.08;56.06
72465;BME280;60471;52.150;4.508;2023-05-20T08:16:13;102190.63;;;18.18;55.68
72465;BME280;60471;52.150;4.508;2023-05-20T08:18:40;102190.03;;;18.13;55.12
72465;BME280;60471;52.150;4.508;2023-05-20T08:21:06;102190.97;;;18.12;54.94
72465;BME280;60471;52.150;4.508;2023-05-20T08:23:33;102182.31;;;18.23;54.53
72465;BME280;60471;52.150;4.508;2023-05-20T08:26:00;102188.53;;;18.53;54.47
72465;BME280;60471;52.150;4.508;2023-05-20T08:28:29;102182.63;;;18.63;53.95
72465;BME280;60471;52.150;4.508;2023-05-20T08:30:56;102185.53;;;18.44;53.64
72465;BME280;60471;52.150;4.508;2023-05-20T08:33:25;102186.69;;;18.40;54.45
72465;BME280;60471;52.150;4.508;2023-05-20T08:35:51;102181.66;;;18.19;53.90
72465;BME280;60471;52.150;4.508;2023-05-20T08:38:18;102177.16;;;18.80;52.69
72465;BME280;60471;52.150;4.508;2023-05-20T08:40:45;102173.72;;;18.78;52.62
72465;BME280;60471;52.150;4.508;2023-05-20T08:43:16;102174.28;;;18.83;52.14
72465;BME280;60471;52.150;4.508;2023-05-20T08:45:42;102166.94;;;19.29;51.13
72465;BME280;60471;52.150;4.508;2023-05-20T08:48:08;102173.13;;;19.58;50.62
72465;BME280;60471;52.150;4.508;2023-05-20T08:50:36;102155.53;;;19.40;50.65
72465;BME280;60471;52.150;4.508;2023-05-20T08:53:03;102163.22;;;19.18;51.17
72465;BME280;60471;52.150;4.508;2023-05-20T08:55:47;102166.84;;;19.17;50.40
72465;BME280;60471;52.150;4.508;2023-05-20T08:58:18;102155.50;;;19.13;50.50
72465;BME280;60471;52.150;4.508;2023-05-20T09:00:45;102160.03;;;19.39;50.29
72465;BME280;60471;52.150;4.508;2023-05-20T09:03:11;102163.69;;;19.10;50.50
72465;BME280;60471;52.150;4.508;2023-05-20T09:05:38;102146.84;;;19.65;48.22
72465;BME280;60471;52.150;4.508;2023-05-20T09:08:08;102149.09;;;19.71;47.98
72465;BME280;60471;52.150;4.508;2023-05-20T09:10:37;102158.47;;;19.78;48.33
72465;BME280;60471;52.150;4.508;2023-05-20T09:13:05;102152.69;;;19.29;47.90
72465;BME280;60471;52.150;4.508;2023-05-20T09:15:33;102141.41;;;19.38;47.34
72465;BME280;60471;52.150;4.508;2023-05-20T09:18:05;102148.97;;;19.87;46.29
72465;BME280;60471;52.150;4.508;2023-05-20T09:20:34;102149.72;;;19.89;46.99
72465;BME280;60471;52.150;4.508;2023-05-20T09:23:03;102147.75;;;20.18;46.42
72465;BME280;60471;52.150;4.508;2023-05-20T09:25:32;102149.34;;;20.73;46.23
72465;BME280;60471;52.150;4.508;2023-05-20T09:27:59;102143.59;;;20.39;45.86
72465;BME280;60471;52.150;4.508;2023-05-20T09:30:25;102125.19;;;19.95;45.32
72465;BME280;60471;52.150;4.508;2023-05-20T09:32:55;102140.75;;;19.20;46.39
72465;BME280;60471;52.150;4.508;2023-05-20T09:35:24;102135.84;;;19.82;45.50
72465;BME280;60471;52.150;4.508;2023-05-20T09:37:56;102131.28;;;19.97;46.12
72465;BME280;60471;52.150;4.508;2023-05-20T09:40:25;102132.34;;;19.94;44.43
72465;BME280;60471;52.150;4.508;2023-05-20T09:43:00;102124.81;;;20.14;44.50
72465;BME280;60471;52.150;4.508;2023-05-20T09:45:28;102117.28;;;19.66;44.81
72465;BME280;60471;52.150;4.508;2023-05-20T09:47:55;102121.44;;;19.71;45.54
72465;BME280;60471;52.150;4.508;2023-05-20T09:50:23;102108.06;;;19.71;44.67
72465;BME280;60471;52.150;4.508;2023-05-20T09:52:51;102119.56;;;20.12;44.91
72465;BME280;60471;52.150;4.508;2023-05-20T09:55:20;102109.06;;;20.09;45.11
72465;BME280;60471;52.150;4.508;2023-05-20T09:57:49;102106.75;;;19.90;44.87
72465;BME280;60471;52.150;4.508;2023-05-20T10:00:15;102103.31;;;19.88;44.35
72465;BME280;60471;52.150;4.508;2023-05-20T10:02:43;102101.53;;;20.14;44.36
72465;BME280;60471;52.150;4.508;2023-05-20T10:10:42;102097.34;;;20.63;43.25
72465;BME280;60471;52.150;4.508;2023-05-20T10:13:39;102094.97;;;20.58;44.02
72465;BME280;60471;52.150;4.508;2023-05-20T10:19:33;102088.88;;;21.05;41.66
72465;BME280;60471;52.150;4.508;2023-05-20T10:22:07;102080.03;;;20.79;42.63
72465;BME280;60471;52.150;4.508;2023-05-20T10:24:36;102083.53;;;21.05;41.88
72465;BME280;60471;52.150;4.508;2023-05-20T10:27:11;102086.03;;;21.69;40.69
72465;BME280;60471;52.150;4.508;2023-05-20T10:29:44;102085.16;;;21.68;40.11
72465;BME280;60471;52.150;4.508;2023-05-20T10:32:23;102083.72;;;21.99;39.79
72465;BME280;60471;52.150;4.508;2023-05-20T10:35:01;102084.56;;;21.41;39.78
72465;BME280;60471;52.150;4.508;2023-05-20T10:37:31;102074.47;;;21.80;39.51
72465;BME280;60471;52.150;4.508;2023-05-20T10:40:12;102076.16;;;22.40;38.69
72465;BME280;60471;52.150;4.508;2023-05-20T10:42:39;102066.34;;;24.24;34.16
72465;BME280;60471;52.150;4.508;2023-05-20T10:45:08;102062.91;;;23.37;35.54
72465;BME280;60471;52.150;4.508;2023-05-20T10:47:35;102050.63;;;23.12;35.70
72465;BME280;60471;52.150;4.508;2023-05-20T10:50:02;102045.75;;;24.03;34.19
72465;BME280;60471;52.150;4.508;2023-05-20T10:52:35;102048.38;;;24.96;32.44
72465;BME280;60471;52.150;4.508;2023-05-20T10:55:02;102045.63;;;24.04;34.55
72465;BME280;60471;52.150;4.508;2023-05-20T10:57:29;102051.22;;;25.54;32.05
72465;BME280;60471;52.150;4.508;2023-05-20T10:59:57;102054.91;;;25.43;31.75
72465;BME280;60471;52.150;4.508;2023-05-20T11:02:25;102048.47;;;25.25;31.61
72465;BME280;60471;52.150;4.508;2023-05-20T11:04:55;102045.38;;;25.29;31.58
72465;BME280;60471;52.150;4.508;2023-05-20T11:07:28;102035.13;;;26.94;28.85
72465;BME280;60471;52.150;4.508;2023-05-20T11:09:57;102035.41;;;28.08;28.92
72465;BME280;60471;52.150;4.508;2023-05-20T11:12:25;102014.94;;;27.52;28.25
72465;BME280;60471;52.150;4.508;2023-05-20T11:14:52;102028.06;;;27.11;28.95
72465;BME280;60471;52.150;4.508;2023-05-20T11:17:19;102022.81;;;26.35;29.79
72465;BME280;60471;52.150;4.508;2023-05-20T11:19:47;102020.84;;;27.02;29.53
72465;BME280;60471;52.150;4.508;2023-05-20T11:22:13;102009.81;;;27.49;28.40
72465;BME280;60471;52.150;4.508;2023-05-20T11:24:40;102025.44;;;26.64;29.58
72465;BME280;60471;52.150;4.508;2023-05-20T11:27:06;102015.53;;;25.40;31.66
72465;BME280;60471;52.150;4.508;2023-05-20T11:29:32;102022.97;;;26.34;30.25
72465;BME280;60471;52.150;4.508;2023-05-20T11:31:59;102027.38;;;26.44;30.47
72465;BME280;60471;52.150;4.508;2023-05-20T11:34:33;102031.56;;;26.66;29.87
72465;BME280;60471;52.150;4.508;2023-05-20T11:37:00;102021.06;;;26.53;29.35
72465;BME280;60471;52.150;4.508;2023-05-20T11:39:30;102028.50;;;27.52;28.46
72465;BME280;60471;52.150;4.508;2023-05-20T11:41:57;102022.53;;;26.75;29.17
72465;BME280;60471;52.150;4.508;2023-05-20T11:44:24;102015.66;;;26.53;29.36
72465;BME280;60471;52.150;4.508;2023-05-20T11:46:51;102006.84;;;27.06;29.14
72465;BME280;60471;52.150;4.508;2023-05-20T11:49:25;102001.34;;;26.71;29.19
72465;BME280;60471;52.150;4.508;2023-05-20T11:51:51;101996.19;;;26.30;29.69
72465;BME280;60471;52.150;4.508;2023-05-20T11:54:21;101988.47;;;25.60;30.15
72465;BME280;60471;52.150;4.508;2023-05-20T11:56:48;102002.13;;;25.10;32.14
72465;BME280;60471;52.150;4.508;2023-05-20T11:59:15;101994.53;;;26.57;29.83
72465;BME280;60471;52.150;4.508;2023-05-20T12:01:41;101990.06;;;27.38;28.03
72465;BME280;60471;52.150;4.508;2023-05-20T12:04:08;101993.22;;;27.87;28.44
72465;BME280;60471;52.150;4.508;2023-05-20T12:06:35;101981.59;;;28.89;26.38
72465;BME280;60471;52.150;4.508;2023-05-20T12:09:11;101980.88;;;26.12;29.44
72465;BME280;60471;52.150;4.508;2023-05-20T12:11:39;101993.03;;;26.45;29.79
72465;BME280;60471;52.150;4.508;2023-05-20T12:14:06;101978.97;;;26.41;30.35
72465;BME280;60471;52.150;4.508;2023-05-20T12:16:34;101972.78;;;27.75;27.80
72465;BME280;60471;52.150;4.508;2023-05-20T12:19:01;101983.31;;;27.07;29.35
72465;BME280;60471;52.150;4.508;2023-05-20T12:21:29;101973.47;;;29.05;26.52
72465;BME280;60471;52.150;4.508;2023-05-20T12:23:57;101963.66;;;29.37;25.50
72465;BME280;60471;52.150;4.508;2023-05-20T12:26:27;101954.44;;;27.51;27.18
72465;BME280;60471;52.150;4.508;2023-05-20T12:28:54;101966.59;;;27.47;27.31
72465;BME280;60471;52.150;4.508;2023-05-20T12:31:20;101967.41;;;27.83;28.11
72465;BME280;60471;52.150;4.508;2023-05-20T12:33:47;101973.97;;;29.01;26.64
72465;BME280;60471;52.150;4.508;2023-05-20T12:36:13;101962.25;;;28.58;26.21
72465;BME280;60471;52.150;4.508;2023-05-20T12:38:40;101959.38;;;28.25;26.59
72465;BME280;60471;52.150;4.508;2023-05-20T12:41:06;101966.66;;;28.93;26.07
72465;BME280;60471;52.150;4.508;2023-05-20T12:43:34;101950.69;;;30.20;24.66
72465;BME280;60471;52.150;4.508;2023-05-20T12:46:01;101960.09;;;29.36;24.63
72465;BME280;60471;52.150;4.508;2023-05-20T12:48:27;101968.44;;;26.66;28.16
72465;BME280;60471;52.150;4.508;2023-05-20T12:50:53;101966.47;;;26.58;28.37
72465;BME280;60471;52.150;4.508;2023-05-20T12:53:19;101954.19;;;27.62;27.82
72465;BME280;60471;52.150;4.508;2023-05-20T12:55:45;101950.03;;;27.14;27.92
72465;BME280;60471;52.150;4.508;2023-05-20T12:58:12;101934.78;;;27.31;26.95
72465;BME280;60471;52.150;4.508;2023-05-20T13:00:38;101952.31;;;28.07;26.51